ADDS METAR Data INFO
IDs: Format: Raw Decoded Include TAF

Data at: 2225 UTC 24 Jun 2018

KMAW 242215Z AUTO 16005KT 10SM CLR 28/22 A2993 RMK AO2
KMAW 242155Z AUTO 00000KT 10SM CLR 28/22 A2994 RMK AO2
KMAW 242135Z AUTO 21003KT 10SM -RA CLR 28/22 A2994 RMK AO2
KMAW 242115Z AUTO 00000KT 10SM CLR 27/23 A2994 RMK AO2
KMAW 242055Z AUTO 00000KT 10SM VCTSDZ SCT006 27/23 A2994 RMK AO2
KMAW 242035Z AUTO 00000KT 10SM CLR 27/23 A2995 RMK AO2
KMAW 242015Z AUTO 11003KT 10SM -DZ CLR 27/23 A2993 RMK AO2
KMAW 241955Z AUTO 16003KT 10SM CLR 26/22 A2994 RMK AO2
KMAW 241935Z AUTO 12003KT 10SM CLR 26/22 A2993 RMK AO2
KMAW 241915Z AUTO 11004KT 10SM -RA CLR 26/22 A2991 RMK AO2
KMAW 241855Z AUTO 16005KT 10SM -RA CLR 26/22 A2992 RMK AO2 LTG DSNT N
KMAW 241835Z AUTO 18006KT 10SM CLR 26/22 A2993 RMK AO2
KMAW 241815Z AUTO 18007KT 10SM CLR 25/22 A2995 RMK AO2
KMAW 241755Z AUTO 19007KT 10SM CLR 24/22 A2996 RMK AO2 LTG DSNT N AND NE
KMAW 241735Z AUTO 19006KT 10SM VCTS SCT006 SCT011 SCT043 24/21 A2997 RMK AO2 LTG DSNT N THRU E
KMAW 241715Z AUTO 22006G21KT 4SM -TSRA SCT006 SCT011 BKN022 23/21 A3001 RMK AO2 LTG DSNT ALQS
KMAW 241655Z AUTO 26014G18KT 10SM -TSDZ SCT022 25/21 A3004 RMK AO2 LTG DSNT ALQS
KMAW 241635Z AUTO 22007KT 10SM TS CLR 26/20 A2998 RMK AO2 LTG DSNT SW THRU NW
KMAW 241615Z AUTO 21003KT 10SM VCTS CLR 26/20 A2996 RMK AO2 LTG DSNT SW AND W
KMAW 241555Z AUTO 21004KT 10SM CLR 26/20 A2994 RMK AO2 LTG DSNT SW AND W
KMAW 241535Z AUTO 20005KT 10SM CLR 25/21 A2994 RMK AO2 LTG DSNT SW AND W
KMAW 241515Z AUTO 23007KT 10SM CLR 24/21 A2996 RMK AO2 LTG DSNT SW AND W
KMAW 241455Z AUTO 21012G15KT 10SM -RA CLR 25/21 A2996 RMK AO2 LTG DSNT W
KMAW 241435Z AUTO 20010KT 10SM CLR 26/20 A2996 RMK AO2 LTG DSNT W
KMAW 241415Z AUTO 22005KT 10SM CLR 26/20 A2995 RMK AO2
KMAW 241355Z AUTO 24005KT 10SM CLR 26/20 A2994 RMK AO2 LTG DSNT W
KMAW 241335Z AUTO 22009KT 10SM CLR 25/20 A2995 RMK AO2
KMAW 241315Z AUTO 21012KT 10SM CLR 25/20 A2995 RMK AO2 LTG DSNT SW
KMAW 241255Z AUTO 21009KT 10SM CLR 25/21 A2994 RMK AO2 LTG DSNT SW
KMAW 241235Z AUTO 22008KT 10SM CLR 25/21 A2993 RMK AO2 LTG DSNT SW
KMAW 241215Z AUTO 21009KT 10SM SCT065 25/22 A2993 RMK AO2 LTG DSNT SE
KMAW 241155Z AUTO 20008KT 10SM SCT065 24/22 A2993 RMK AO2 LTG DSNT S AND SW
KMAW 241135Z AUTO 19003KT 10SM CLR 23/22 A2992 RMK AO2
KMAW 241115Z AUTO 18006KT 10SM CLR 23/21 A2992 RMK AO2
KMAW 241055Z AUTO 18004KT 10SM CLR 23/21 A2991 RMK AO2 LTG DSNT S
KMAW 241035Z AUTO 00000KT 10SM CLR 23/21 A2989 RMK AO2 LTG DSNT S
KMAW 241015Z AUTO 18003KT 10SM CLR 23/21 A2988 RMK AO2
KMAW 240955Z AUTO 18004KT 10SM CLR 23/21 A2987 RMK AO2
KMAW 240935Z AUTO 16009KT 10SM CLR 23/21 A2987 RMK AO2
KMAW 240915Z AUTO 03003KT 10SM CLR 22/21 A2986 RMK AO2
KMAW 240855Z AUTO 00000KT 10SM CLR 22/21 A2987 RMK AO2 LTG DSNT S
KMAW 240835Z AUTO 00000KT 10SM CLR 23/21 A2987 RMK AO2
KMAW 240815Z AUTO 17003KT 10SM CLR 23/21 A2986 RMK AO2 LTG DSNT S
KMAW 240755Z AUTO 00000KT 10SM CLR 25/21 A2987 RMK AO2 LTG DSNT SW
KMAW 240735Z AUTO 00000KT 10SM CLR 24/21 A2985 RMK AO2 LTG DSNT SW
KMAW 240715Z AUTO 00000KT 10SM CLR 23/21 A2985 RMK AO2
KMAW 240655Z AUTO 00000KT 10SM CLR 23/21 A2985 RMK AO2
KMAW 240635Z AUTO 00000KT 10SM CLR 24/21 A2985 RMK AO2
KMAW 240615Z AUTO 00000KT 10SM CLR 24/21 A2985 RMK AO2 LTG DSNT S
KMAW 240555Z AUTO 00000KT 10SM CLR 25/21 A2985 RMK AO2
KMAW 240535Z AUTO 00000KT 10SM CLR 25/21 A2985 RMK AO2
KMAW 240515Z AUTO 00000KT 10SM CLR 26/21 A2985 RMK AO2
KMAW 240455Z AUTO 36004KT 10SM CLR 26/21 A2985 RMK AO2
KMAW 240435Z AUTO 00000KT 10SM CLR 26/21 A2984 RMK AO2
KMAW 240415Z AUTO 21005KT 10SM CLR 26/21 A2983 RMK AO2
KMAW 240355Z AUTO 22006KT 10SM CLR 26/21 A2983 RMK AO2
KMAW 240335Z AUTO 20005KT 10SM CLR 27/21 A2982 RMK AO2
KMAW 240315Z AUTO 21006KT 10SM CLR 27/21 A2982 RMK AO2
KMAW 240255Z AUTO 22006KT 10SM CLR 27/21 A2981 RMK AO2
KMAW 240235Z AUTO 22007KT 10SM CLR 27/21 A2980 RMK AO2
KMAW 240215Z AUTO 21006KT 10SM CLR 27/21 A2979 RMK AO2
KMAW 240155Z AUTO 21005KT 10SM CLR 28/21 A2979 RMK AO2
KMAW 240135Z AUTO 21006KT 10SM CLR 28/21 A2978 RMK AO2
KMAW 240115Z AUTO 21006KT 10SM CLR 29/21 A2978 RMK AO2
KMAW 240055Z AUTO 22006KT 10SM CLR 30/21 A2978 RMK AO2
KMAW 240035Z AUTO 22010KT 10SM CLR 30/20 A2978 RMK AO2
KMAW 240015Z AUTO 23009KT 10SM CLR 31/20 A2979 RMK AO2
KMAW 232355Z AUTO 22010KT 10SM CLR 31/20 A2978 RMK AO2
KMAW 232335Z AUTO 24011KT 10SM CLR 31/20 A2978 RMK AO2
KMAW 232315Z AUTO 25013KT 10SM SCT036 32/19 A2978 RMK AO2
KMAW 232255Z AUTO 21012KT 10SM SCT036 SCT042 31/21 A2977 RMK AO2
KMAW 232235Z AUTO 23008KT 10SM CLR 31/21 A2978 RMK AO2
KMAW 232215Z AUTO 22011G17KT 10SM SCT043 31/20 A2978 RMK AO2
KMAW 232155Z AUTO 21008KT 10SM SCT041 SCT055 31/20 A2978 RMK AO2
KMAW 232135Z AUTO 21009KT 10SM CLR 31/20 A2978 RMK AO2
KMAW 232115Z AUTO 25006KT 10SM CLR 32/20 A2977 RMK AO2
KMAW 232055Z AUTO 25005G14KT 10SM CLR 32/17 A2978 RMK AO2
KMAW 232035Z AUTO 22007KT 10SM SCT045 31/20 A2978 RMK AO2
KMAW 232015Z AUTO 21009G15KT 184V244 10SM CLR 31/19 A2978 RMK AO2
KMAW 231955Z AUTO 22012G15KT 10SM CLR 32/21 A2978 RMK AO2
KMAW 231935Z AUTO 21010KT 10SM SCT039 32/20 A2978 RMK AO2
KMAW 231915Z AUTO 19010G14KT 10SM SCT039 31/20 A2979 RMK AO2
KMAW 231855Z AUTO 19010G17KT 10SM SCT036 31/20 A2979 RMK AO2
KMAW 231835Z AUTO 20008KT 10SM SCT035 31/20 A2980 RMK AO2
KMAW 231815Z AUTO 18007KT 10SM SCT035 30/20 A2981 RMK AO2
KMAW 231755Z AUTO 19009KT 144V214 10SM CLR 30/20 A2981 RMK AO2
KMAW 231735Z AUTO 16008KT 10SM SCT027 29/20 A2982 RMK AO2
KMAW 231715Z AUTO 12004KT 10SM SCT027 29/20 A2982 RMK AO2
KMAW 231655Z AUTO 13007KT 10SM CLR 28/20 A2981 RMK AO2
KMAW 231635Z AUTO 17003KT 10SM CLR 27/20 A2983 RMK AO2
KMAW 231615Z AUTO 12006KT 10SM CLR 27/20 A2982 RMK AO2
KMAW 231555Z AUTO 08005KT 10SM CLR 27/20 A2981 RMK AO2
KMAW 231535Z AUTO 10006KT 064V124 10SM CLR 26/20 A2979 RMK AO2
KMAW 231515Z AUTO 06008KT 10SM CLR 26/19 A2978 RMK AO2
KMAW 231455Z AUTO 04007KT 10SM CLR 25/20 A2983 RMK AO2
KMAW 231435Z AUTO 04006KT 10SM CLR 25/20 A2983 RMK AO2 LTG DSNT SE
KMAW 231415Z AUTO 07005KT 10SM CLR 25/20 A2983 RMK AO2
KMAW 231355Z AUTO 09004KT 10SM CLR 24/20 A2984 RMK AO2
KMAW 231335Z AUTO 06005KT 10SM CLR 24/20 A2983 RMK AO2
KMAW 231315Z AUTO 08003KT 10SM CLR 23/20 A2983 RMK AO2
KMAW 231255Z AUTO 00000KT 10SM CLR 23/19 A2983 RMK AO2
KMAW 231235Z AUTO 00000KT 10SM CLR 22/19 A2984 RMK AO2
KMAW 231215Z AUTO 00000KT 10SM CLR 22/20 A2983 RMK AO2
KMAW 231155Z AUTO 00000KT 7SM CLR 21/20 A2981 RMK AO2
KMAW 231135Z AUTO 00000KT 5SM BR CLR 21/20 A2981 RMK AO2
KMAW 231115Z AUTO 00000KT 5SM BR CLR 21/19 A2981 RMK AO2
KMAW 231055Z AUTO 05003KT 7SM CLR 21/19 A2980 RMK AO2
KMAW 231035Z AUTO 03003KT 7SM CLR 20/19 A2981 RMK AO2